sensor_id;sensor_type;location;lat;lon;timestamp;P1;durP1;ratioP1;P2;durP2;ratioP2
42948;SDS011;28587;46.794;23.594;2023-01-25T00:01:16;10.75;;;8.23;;
42948;SDS011;28587;46.794;23.594;2023-01-25T00:06:16;9.98;;;8.98;;
42948;SDS011;28587;46.794;23.594;2023-01-25T00:11:17;10.07;;;9.18;;
42948;SDS011;28587;46.794;23.594;2023-01-25T00:16:19;10.82;;;9.38;;
42948;SDS011;28587;46.794;23.594;2023-01-25T00:21:21;10.25;;;9.25;;
42948;SDS011;28587;46.794;23.594;2023-01-25T00:26:24;9.82;;;8.80;;
42948;SDS011;28587;46.794;23.594;2023-01-25T00:31:27;10.52;;;9.18;;
42948;SDS011;28587;46.794;23.594;2023-01-25T00:41:39;10.40;;;9.30;;
42948;SDS011;28587;46.794;23.594;2023-01-25T00:46:40;10.55;;;8.98;;
42948;SDS011;28587;46.794;23.594;2023-01-25T00:51:41;9.45;;;8.52;;
42948;SDS011;28587;46.794;23.594;2023-01-25T00:56:42;9.85;;;8.85;;
42948;SDS011;28587;46.794;23.594;2023-01-25T01:07:01;10.18;;;9.18;;
42948;SDS011;28587;46.794;23.594;2023-01-25T01:12:02;9.85;;;8.85;;
42948;SDS011;28587;46.794;23.594;2023-01-25T01:17:04;9.52;;;8.55;;
42948;SDS011;28587;46.794;23.594;2023-01-25T01:22:05;10.35;;;8.88;;
42948;SDS011;28587;46.794;23.594;2023-01-25T01:27:06;9.70;;;8.73;;
42948;SDS011;28587;46.794;23.594;2023-01-25T01:32:07;9.90;;;8.82;;
42948;SDS011;28587;46.794;23.594;2023-01-25T01:37:08;10.95;;;8.35;;
42948;SDS011;28587;46.794;23.594;2023-01-25T01:42:09;10.00;;;8.73;;
42948;SDS011;28587;46.794;23.594;2023-01-25T01:47:17;10.65;;;9.32;;
42948;SDS011;28587;46.794;23.594;2023-01-25T01:52:31;10.35;;;9.18;;
42948;SDS011;28587;46.794;23.594;2023-01-25T02:02:51;9.52;;;8.50;;
42948;SDS011;28587;46.794;23.594;2023-01-25T02:07:53;10.25;;;9.15;;
42948;SDS011;28587;46.794;23.594;2023-01-25T02:12:57;9.80;;;8.80;;
42948;SDS011;28587;46.794;23.594;2023-01-25T02:17:58;10.25;;;9.23;;
42948;SDS011;28587;46.794;23.594;2023-01-25T02:23:02;10.13;;;8.93;;
42948;SDS011;28587;46.794;23.594;2023-01-25T02:28:25;9.82;;;8.82;;
42948;SDS011;28587;46.794;23.594;2023-01-25T02:33:29;9.73;;;8.80;;
42948;SDS011;28587;46.794;23.594;2023-01-25T02:38:31;9.65;;;8.68;;
42948;SDS011;28587;46.794;23.594;2023-01-25T02:43:34;10.85;;;8.75;;
42948;SDS011;28587;46.794;23.594;2023-01-25T02:48:37;9.63;;;8.48;;
42948;SDS011;28587;46.794;23.594;2023-01-25T02:53:39;9.73;;;8.73;;
42948;SDS011;28587;46.794;23.594;2023-01-25T02:58:41;9.63;;;8.73;;
42948;SDS011;28587;46.794;23.594;2023-01-25T03:03:43;9.15;;;8.20;;
42948;SDS011;28587;46.794;23.594;2023-01-25T03:08:44;10.05;;;9.05;;
42948;SDS011;28587;46.794;23.594;2023-01-25T03:13:47;9.18;;;8.27;;
42948;SDS011;28587;46.794;23.594;2023-01-25T03:18:51;9.75;;;8.75;;
42948;SDS011;28587;46.794;23.594;2023-01-25T03:23:58;9.23;;;8.32;;
42948;SDS011;28587;46.794;23.594;2023-01-25T03:29:04;10.07;;;8.88;;
42948;SDS011;28587;46.794;23.594;2023-01-25T03:34:08;9.63;;;8.73;;
42948;SDS011;28587;46.794;23.594;2023-01-25T03:39:12;10.43;;;8.20;;
42948;SDS011;28587;46.794;23.594;2023-01-25T03:44:16;8.93;;;8.00;;
42948;SDS011;28587;46.794;23.594;2023-01-25T03:49:19;11.52;;;8.68;;
42948;SDS011;28587;46.794;23.594;2023-01-25T03:54:21;10.05;;;8.98;;
42948;SDS011;28587;46.794;23.594;2023-01-25T03:59:22;9.90;;;8.80;;
42948;SDS011;28587;46.794;23.594;2023-01-25T04:04:23;10.52;;;8.85;;
42948;SDS011;28587;46.794;23.594;2023-01-25T04:09:24;11.07;;;9.93;;
42948;SDS011;28587;46.794;23.594;2023-01-25T04:14:29;9.43;;;8.52;;
42948;SDS011;28587;46.794;23.594;2023-01-25T04:19:34;9.57;;;8.38;;
42948;SDS011;28587;46.794;23.594;2023-01-25T04:24:37;9.15;;;8.20;;
42948;SDS011;28587;46.794;23.594;2023-01-25T04:29:38;9.60;;;8.60;;
42948;SDS011;28587;46.794;23.594;2023-01-25T04:34:40;9.57;;;8.60;;
42948;SDS011;28587;46.794;23.594;2023-01-25T04:39:46;10.02;;;8.80;;
42948;SDS011;28587;46.794;23.594;2023-01-25T04:44:47;9.48;;;8.57;;
42948;SDS011;28587;46.794;23.594;2023-01-25T04:49:48;9.95;;;8.90;;
42948;SDS011;28587;46.794;23.594;2023-01-25T04:54:52;11.77;;;9.57;;
42948;SDS011;28587;46.794;23.594;2023-01-25T04:59:53;10.05;;;8.70;;
42948;SDS011;28587;46.794;23.594;2023-01-25T05:04:56;11.82;;;9.27;;
42948;SDS011;28587;46.794;23.594;2023-01-25T05:09:57;12.15;;;9.25;;
42948;SDS011;28587;46.794;23.594;2023-01-25T05:15:00;10.40;;;9.35;;
42948;SDS011;28587;46.794;23.594;2023-01-25T05:20:01;10.65;;;9.40;;
42948;SDS011;28587;46.794;23.594;2023-01-25T05:25:03;10.15;;;9.15;;
42948;SDS011;28587;46.794;23.594;2023-01-25T05:30:09;10.48;;;8.35;;
42948;SDS011;28587;46.794;23.594;2023-01-25T05:35:28;11.15;;;9.77;;
42948;SDS011;28587;46.794;23.594;2023-01-25T05:40:30;11.85;;;9.40;;
42948;SDS011;28587;46.794;23.594;2023-01-25T05:45:33;10.57;;;9.32;;
42948;SDS011;28587;46.794;23.594;2023-01-25T05:50:36;9.52;;;8.60;;
42948;SDS011;28587;46.794;23.594;2023-01-25T05:55:41;10.20;;;9.18;;
42948;SDS011;28587;46.794;23.594;2023-01-25T06:00:46;9.88;;;8.88;;
42948;SDS011;28587;46.794;23.594;2023-01-25T06:06:10;12.43;;;9.90;;
42948;SDS011;28587;46.794;23.594;2023-01-25T06:11:13;15.73;;;10.48;;
42948;SDS011;28587;46.794;23.594;2023-01-25T06:16:18;12.40;;;10.32;;
42948;SDS011;28587;46.794;23.594;2023-01-25T06:21:35;12.13;;;10.70;;
42948;SDS011;28587;46.794;23.594;2023-01-25T06:26:36;13.32;;;10.90;;
42948;SDS011;28587;46.794;23.594;2023-01-25T06:31:37;12.95;;;11.48;;
42948;SDS011;28587;46.794;23.594;2023-01-25T06:36:38;12.70;;;11.50;;
42948;SDS011;28587;46.794;23.594;2023-01-25T06:41:39;12.98;;;11.52;;
42948;SDS011;28587;46.794;23.594;2023-01-25T06:46:40;11.77;;;10.55;;
42948;SDS011;28587;46.794;23.594;2023-01-25T06:51:41;13.23;;;11.93;;
42948;SDS011;28587;46.794;23.594;2023-01-25T06:56:42;13.00;;;11.73;;
42948;SDS011;28587;46.794;23.594;2023-01-25T07:01:43;13.65;;;12.25;;
42948;SDS011;28587;46.794;23.594;2023-01-25T07:06:44;13.43;;;12.10;;
42948;SDS011;28587;46.794;23.594;2023-01-25T07:11:45;14.18;;;12.77;;
42948;SDS011;28587;46.794;23.594;2023-01-25T07:16:47;14.35;;;12.85;;
42948;SDS011;28587;46.794;23.594;2023-01-25T07:21:50;14.77;;;13.27;;
42948;SDS011;28587;46.794;23.594;2023-01-25T07:26:52;14.60;;;13.10;;
42948;SDS011;28587;46.794;23.594;2023-01-25T07:31:55;16.45;;;14.18;;
42948;SDS011;28587;46.794;23.594;2023-01-25T07:36:58;16.38;;;14.68;;
42948;SDS011;28587;46.794;23.594;2023-01-25T07:42:00;17.23;;;14.48;;
42948;SDS011;28587;46.794;23.594;2023-01-25T07:47:05;15.77;;;14.18;;
42948;SDS011;28587;46.794;23.594;2023-01-25T07:52:08;16.25;;;14.50;;
42948;SDS011;28587;46.794;23.594;2023-01-25T07:57:11;16.05;;;13.95;;
42948;SDS011;28587;46.794;23.594;2023-01-25T08:02:14;15.27;;;13.73;;
42948;SDS011;28587;46.794;23.594;2023-01-25T08:07:17;14.77;;;13.27;;
42948;SDS011;28587;46.794;23.594;2023-01-25T08:12:23;15.15;;;13.55;;
42948;SDS011;28587;46.794;23.594;2023-01-25T08:17:27;16.00;;;14.25;;
42948;SDS011;28587;46.794;23.594;2023-01-25T08:22:33;15.45;;;13.73;;
42948;SDS011;28587;46.794;23.594;2023-01-25T08:27:35;15.55;;;13.95;;
42948;SDS011;28587;46.794;23.594;2023-01-25T08:32:37;15.02;;;13.48;;
42948;SDS011;28587;46.794;23.594;2023-01-25T08:37:39;15.27;;;13.65;;
42948;SDS011;28587;46.794;23.594;2023-01-25T08:42:41;14.65;;;13.18;;
42948;SDS011;28587;46.794;23.594;2023-01-25T08:47:44;14.80;;;12.98;;
42948;SDS011;28587;46.794;23.594;2023-01-25T08:52:46;15.35;;;13.07;;
42948;SDS011;28587;46.794;23.594;2023-01-25T08:57:48;15.43;;;13.02;;
42948;SDS011;28587;46.794;23.594;2023-01-25T09:02:50;14.43;;;13.02;;
42948;SDS011;28587;46.794;23.594;2023-01-25T09:07:53;16.48;;;13.18;;
42948;SDS011;28587;46.794;23.594;2023-01-25T09:12:55;15.73;;;13.20;;
42948;SDS011;28587;46.794;23.594;2023-01-25T09:17:57;14.00;;;12.52;;
42948;SDS011;28587;46.794;23.594;2023-01-25T09:23:00;17.40;;;14.10;;
42948;SDS011;28587;46.794;23.594;2023-01-25T09:28:02;15.23;;;13.30;;
42948;SDS011;28587;46.794;23.594;2023-01-25T09:33:10;15.50;;;12.90;;
42948;SDS011;28587;46.794;23.594;2023-01-25T09:38:16;15.82;;;12.60;;
42948;SDS011;28587;46.794;23.594;2023-01-25T09:54:17;14.88;;;13.20;;
42948;SDS011;28587;46.794;23.594;2023-01-25T09:59:20;17.15;;;13.32;;
42948;SDS011;28587;46.794;23.594;2023-01-25T10:04:26;16.42;;;12.93;;
42948;SDS011;28587;46.794;23.594;2023-01-25T10:09:39;16.20;;;12.88;;
42948;SDS011;28587;46.794;23.594;2023-01-25T10:14:49;15.90;;;13.65;;
42948;SDS011;28587;46.794;23.594;2023-01-25T10:20:11;14.45;;;12.82;;
42948;SDS011;28587;46.794;23.594;2023-01-25T10:25:37;15.50;;;13.90;;
42948;SDS011;28587;46.794;23.594;2023-01-25T10:36:00;16.75;;;13.88;;
42948;SDS011;28587;46.794;23.594;2023-01-25T10:41:08;14.15;;;12.63;;
42948;SDS011;28587;46.794;23.594;2023-01-25T10:46:22;13.57;;;12.18;;
42948;SDS011;28587;46.794;23.594;2023-01-25T10:51:31;15.00;;;13.13;;
42948;SDS011;28587;46.794;23.594;2023-01-25T10:56:34;13.57;;;12.05;;
42948;SDS011;28587;46.794;23.594;2023-01-25T11:01:38;13.70;;;11.75;;
42948;SDS011;28587;46.794;23.594;2023-01-25T11:06:46;14.98;;;12.52;;
42948;SDS011;28587;46.794;23.594;2023-01-25T11:12:22;13.30;;;11.90;;
42948;SDS011;28587;46.794;23.594;2023-01-25T11:17:23;13.07;;;11.25;;
42948;SDS011;28587;46.794;23.594;2023-01-25T11:22:29;12.18;;;10.85;;
42948;SDS011;28587;46.794;23.594;2023-01-25T11:27:31;14.55;;;11.23;;
42948;SDS011;28587;46.794;23.594;2023-01-25T11:32:33;11.15;;;9.93;;
42948;SDS011;28587;46.794;23.594;2023-01-25T11:37:38;12.27;;;10.52;;
42948;SDS011;28587;46.794;23.594;2023-01-25T11:42:53;14.57;;;11.38;;
42948;SDS011;28587;46.794;23.594;2023-01-25T11:53:53;10.73;;;9.65;;
42948;SDS011;28587;46.794;23.594;2023-01-25T12:10:07;10.15;;;9.15;;
42948;SDS011;28587;46.794;23.594;2023-01-25T12:26:03;11.77;;;10.05;;
42948;SDS011;28587;46.794;23.594;2023-01-25T12:31:34;10.20;;;8.90;;
42948;SDS011;28587;46.794;23.594;2023-01-25T12:36:49;10.55;;;9.18;;
42948;SDS011;28587;46.794;23.594;2023-01-25T12:41:52;10.05;;;9.02;;
42948;SDS011;28587;46.794;23.594;2023-01-25T12:47:17;10.05;;;8.98;;
42948;SDS011;28587;46.794;23.594;2023-01-25T12:52:26;9.98;;;8.93;;
42948;SDS011;28587;46.794;23.594;2023-01-25T13:03:00;10.13;;;9.13;;
42948;SDS011;28587;46.794;23.594;2023-01-25T13:13:28;8.57;;;7.70;;
42948;SDS011;28587;46.794;23.594;2023-01-25T13:28:48;10.38;;;8.50;;
42948;SDS011;28587;46.794;23.594;2023-01-25T13:33:59;9.15;;;8.23;;
42948;SDS011;28587;46.794;23.594;2023-01-25T13:39:38;8.98;;;8.02;;
42948;SDS011;28587;46.794;23.594;2023-01-25T13:44:23;8.90;;;7.90;;
42948;SDS011;28587;46.794;23.594;2023-01-25T13:49:35;8.57;;;7.72;;
42948;SDS011;28587;46.794;23.594;2023-01-25T13:54:46;8.57;;;6.97;;
42948;SDS011;28587;46.794;23.594;2023-01-25T13:59:56;9.35;;;7.70;;
42948;SDS011;28587;46.794;23.594;2023-01-25T14:05:04;8.00;;;7.13;;
42948;SDS011;28587;46.794;23.594;2023-01-25T14:10:17;8.68;;;7.25;;
42948;SDS011;28587;46.794;23.594;2023-01-25T14:15:27;8.25;;;7.20;;
42948;SDS011;28587;46.794;23.594;2023-01-25T14:20:29;8.45;;;6.80;;
42948;SDS011;28587;46.794;23.594;2023-01-25T14:25:31;9.35;;;7.22;;
42948;SDS011;28587;46.794;23.594;2023-01-25T14:30:33;11.90;;;6.97;;
42948;SDS011;28587;46.794;23.594;2023-01-25T14:40:39;8.57;;;6.55;;
42948;SDS011;28587;46.794;23.594;2023-01-25T14:45:41;9.40;;;6.35;;
42948;SDS011;28587;46.794;23.594;2023-01-25T14:50:44;11.13;;;6.75;;
42948;SDS011;28587;46.794;23.594;2023-01-25T14:55:45;8.00;;;6.25;;
42948;SDS011;28587;46.794;23.594;2023-01-25T15:00:54;9.90;;;6.30;;
42948;SDS011;28587;46.794;23.594;2023-01-25T15:06:01;8.60;;;6.72;;
42948;SDS011;28587;46.794;23.594;2023-01-25T15:11:03;6.78;;;6.07;;
42948;SDS011;28587;46.794;23.594;2023-01-25T15:16:32;8.68;;;6.03;;
42948;SDS011;28587;46.794;23.594;2023-01-25T15:21:33;8.40;;;5.50;;
42948;SDS011;28587;46.794;23.594;2023-01-25T15:26:35;7.13;;;5.45;;
42948;SDS011;28587;46.794;23.594;2023-01-25T15:31:36;11.95;;;5.65;;
42948;SDS011;28587;46.794;23.594;2023-01-25T15:36:37;8.63;;;6.03;;
42948;SDS011;28587;46.794;23.594;2023-01-25T15:46:40;6.90;;;5.13;;
42948;SDS011;28587;46.794;23.594;2023-01-25T15:57:00;7.80;;;5.20;;
42948;SDS011;28587;46.794;23.594;2023-01-25T16:02:01;8.20;;;4.85;;
42948;SDS011;28587;46.794;23.594;2023-01-25T16:07:02;6.53;;;4.82;;
42948;SDS011;28587;46.794;23.594;2023-01-25T16:12:03;8.32;;;5.00;;
42948;SDS011;28587;46.794;23.594;2023-01-25T16:17:04;6.80;;;5.32;;
42948;SDS011;28587;46.794;23.594;2023-01-25T16:22:05;9.68;;;5.38;;
42948;SDS011;28587;46.794;23.594;2023-01-25T16:27:07;6.88;;;4.78;;
42948;SDS011;28587;46.794;23.594;2023-01-25T16:32:16;9.93;;;5.57;;
42948;SDS011;28587;46.794;23.594;2023-01-25T16:37:16;7.55;;;4.80;;
42948;SDS011;28587;46.794;23.594;2023-01-25T16:42:17;5.35;;;4.75;;
42948;SDS011;28587;46.794;23.594;2023-01-25T16:47:18;6.30;;;4.55;;
42948;SDS011;28587;46.794;23.594;2023-01-25T16:52:19;5.55;;;4.72;;
42948;SDS011;28587;46.794;23.594;2023-01-25T16:57:20;9.75;;;4.72;;
42948;SDS011;28587;46.794;23.594;2023-01-25T17:02:21;5.35;;;4.25;;
42948;SDS011;28587;46.794;23.594;2023-01-25T17:07:22;7.63;;;5.43;;
42948;SDS011;28587;46.794;23.594;2023-01-25T17:12:23;7.03;;;4.57;;
42948;SDS011;28587;46.794;23.594;2023-01-25T17:17:24;8.40;;;4.78;;
42948;SDS011;28587;46.794;23.594;2023-01-25T17:22:28;6.28;;;4.35;;
42948;SDS011;28587;46.794;23.594;2023-01-25T17:27:36;5.72;;;4.47;;
42948;SDS011;28587;46.794;23.594;2023-01-25T17:32:37;9.60;;;6.43;;
42948;SDS011;28587;46.794;23.594;2023-01-25T17:37:40;9.35;;;6.47;;
42948;SDS011;28587;46.794;23.594;2023-01-25T17:42:40;6.45;;;5.72;;
42948;SDS011;28587;46.794;23.594;2023-01-25T17:47:43;6.53;;;5.75;;
42948;SDS011;28587;46.794;23.594;2023-01-25T17:52:44;7.53;;;5.20;;
42948;SDS011;28587;46.794;23.594;2023-01-25T17:57:45;6.55;;;5.50;;
42948;SDS011;28587;46.794;23.594;2023-01-25T18:02:46;5.32;;;4.82;;
42948;SDS011;28587;46.794;23.594;2023-01-25T18:07:48;7.25;;;5.22;;
42948;SDS011;28587;46.794;23.594;2023-01-25T18:12:49;7.20;;;4.72;;
42948;SDS011;28587;46.794;23.594;2023-01-25T18:17:51;7.90;;;4.80;;
42948;SDS011;28587;46.794;23.594;2023-01-25T18:22:51;5.65;;;4.90;;
42948;SDS011;28587;46.794;23.594;2023-01-25T18:27:53;9.43;;;5.35;;
42948;SDS011;28587;46.794;23.594;2023-01-25T18:32:54;5.22;;;4.60;;
42948;SDS011;28587;46.794;23.594;2023-01-25T18:37:55;4.85;;;4.35;;
42948;SDS011;28587;46.794;23.594;2023-01-25T18:42:56;7.20;;;4.18;;
42948;SDS011;28587;46.794;23.594;2023-01-25T18:47:57;6.47;;;4.15;;
42948;SDS011;28587;46.794;23.594;2023-01-25T18:52:59;7.03;;;3.97;;
42948;SDS011;28587;46.794;23.594;2023-01-25T18:58:00;5.13;;;4.00;;
42948;SDS011;28587;46.794;23.594;2023-01-25T19:03:03;6.90;;;4.20;;
42948;SDS011;28587;46.794;23.594;2023-01-25T19:08:04;5.85;;;4.30;;
42948;SDS011;28587;46.794;23.594;2023-01-25T19:13:05;6.03;;;3.78;;
42948;SDS011;28587;46.794;23.594;2023-01-25T19:18:06;5.97;;;4.20;;
42948;SDS011;28587;46.794;23.594;2023-01-25T19:23:07;6.03;;;3.80;;
42948;SDS011;28587;46.794;23.594;2023-01-25T19:28:08;6.25;;;4.35;;
42948;SDS011;28587;46.794;23.594;2023-01-25T19:33:09;10.43;;;4.88;;
42948;SDS011;28587;46.794;23.594;2023-01-25T19:38:10;8.52;;;4.40;;
42948;SDS011;28587;46.794;23.594;2023-01-25T19:43:11;7.85;;;4.60;;
42948;SDS011;28587;46.794;23.594;2023-01-25T19:48:12;9.70;;;4.15;;
42948;SDS011;28587;46.794;23.594;2023-01-25T19:53:14;5.60;;;4.05;;
42948;SDS011;28587;46.794;23.594;2023-01-25T19:58:14;7.90;;;3.70;;
42948;SDS011;28587;46.794;23.594;2023-01-25T20:03:15;7.78;;;4.13;;
42948;SDS011;28587;46.794;23.594;2023-01-25T20:08:16;9.38;;;3.80;;
42948;SDS011;28587;46.794;23.594;2023-01-25T20:13:17;8.05;;;4.00;;
42948;SDS011;28587;46.794;23.594;2023-01-25T20:18:18;6.35;;;4.28;;
42948;SDS011;28587;46.794;23.594;2023-01-25T20:23:19;5.10;;;3.90;;
42948;SDS011;28587;46.794;23.594;2023-01-25T20:28:20;5.90;;;3.53;;
42948;SDS011;28587;46.794;23.594;2023-01-25T20:33:21;7.65;;;4.03;;
42948;SDS011;28587;46.794;23.594;2023-01-25T20:38:22;4.82;;;3.65;;
42948;SDS011;28587;46.794;23.594;2023-01-25T20:43:27;4.40;;;3.63;;
42948;SDS011;28587;46.794;23.594;2023-01-25T20:48:29;5.78;;;3.85;;
42948;SDS011;28587;46.794;23.594;2023-01-25T20:53:35;5.93;;;3.80;;
42948;SDS011;28587;46.794;23.594;2023-01-25T20:58:36;5.85;;;3.88;;
42948;SDS011;28587;46.794;23.594;2023-01-25T21:03:37;6.10;;;4.20;;
42948;SDS011;28587;46.794;23.594;2023-01-25T21:08:38;4.30;;;3.50;;
42948;SDS011;28587;46.794;23.594;2023-01-25T21:13:39;4.32;;;3.90;;
42948;SDS011;28587;46.794;23.594;2023-01-25T21:18:41;6.88;;;4.13;;
42948;SDS011;28587;46.794;23.594;2023-01-25T21:23:43;8.68;;;4.07;;
42948;SDS011;28587;46.794;23.594;2023-01-25T21:28:46;7.05;;;3.70;;
42948;SDS011;28587;46.794;23.594;2023-01-25T21:33:47;4.53;;;3.70;;
42948;SDS011;28587;46.794;23.594;2023-01-25T21:38:49;4.55;;;3.95;;
42948;SDS011;28587;46.794;23.594;2023-01-25T21:43:52;5.78;;;4.43;;
42948;SDS011;28587;46.794;23.594;2023-01-25T21:49:12;6.75;;;3.63;;
42948;SDS011;28587;46.794;23.594;2023-01-25T21:54:33;6.63;;;3.90;;
42948;SDS011;28587;46.794;23.594;2023-01-25T21:59:36;4.22;;;3.60;;
42948;SDS011;28587;46.794;23.594;2023-01-25T22:04:38;4.22;;;3.50;;
42948;SDS011;28587;46.794;23.594;2023-01-25T22:09:39;5.78;;;4.05;;
42948;SDS011;28587;46.794;23.594;2023-01-25T22:14:40;5.28;;;3.95;;
42948;SDS011;28587;46.794;23.594;2023-01-25T22:19:41;5.68;;;3.92;;
42948;SDS011;28587;46.794;23.594;2023-01-25T22:24:42;4.82;;;3.92;;
42948;SDS011;28587;46.794;23.594;2023-01-25T22:29:43;4.53;;;3.90;;
42948;SDS011;28587;46.794;23.594;2023-01-25T22:34:44;5.05;;;3.75;;
42948;SDS011;28587;46.794;23.594;2023-01-25T22:39:45;6.70;;;4.13;;
42948;SDS011;28587;46.794;23.594;2023-01-25T22:44:47;5.50;;;3.78;;
42948;SDS011;28587;46.794;23.594;2023-01-25T22:49:48;4.32;;;3.63;;
42948;SDS011;28587;46.794;23.594;2023-01-25T22:54:49;4.22;;;3.58;;
42948;SDS011;28587;46.794;23.594;2023-01-25T22:59:50;4.40;;;4.00;;
42948;SDS011;28587;46.794;23.594;2023-01-25T23:04:52;3.97;;;3.65;;
42948;SDS011;28587;46.794;23.594;2023-01-25T23:09:52;4.10;;;3.70;;
42948;SDS011;28587;46.794;23.594;2023-01-25T23:14:53;3.92;;;3.53;;
